createdAt,value
2018-11-14T00:03:37.789Z,101454.17
2018-11-14T00:08:41.287Z,101450.52
2018-11-14T00:13:44.899Z,101456.78
2018-11-14T00:18:48.350Z,101455.44
2018-11-14T00:23:51.853Z,101458.61
2018-11-14T00:28:55.410Z,101467.09
2018-11-14T00:33:58.858Z,101465.73
2018-11-14T00:39:02.326Z,101471.13
2018-11-14T00:44:05.803Z,101465.35
2018-11-14T00:49:09.261Z,101467.09
2018-11-14T00:54:12.656Z,101471.13
2018-11-14T00:59:22.708Z,101483.21
2018-11-14T01:04:26.175Z,101489.08
2018-11-14T01:09:29.630Z,101497.70
2018-11-14T01:14:33.034Z,101493.03
2018-11-14T01:19:36.449Z,101497.25
2018-11-14T01:24:39.880Z,101498.74
2018-11-14T01:29:43.302Z,101504.84
2018-11-14T01:34:46.700Z,101512.63
2018-11-14T01:39:50.129Z,101510.16
2018-11-14T01:45:01.985Z,101510.73
2018-11-14T01:50:07.229Z,101507.70
2018-11-14T01:55:12.601Z,101507.87
2018-11-14T02:00:20.228Z,101518.27
2018-11-14T02:05:23.621Z,101521.58
2018-11-14T02:10:27.093Z,101517.53
2018-11-14T02:15:30.488Z,101516.75
2018-11-14T02:20:34.013Z,101522.59
2018-11-14T02:25:37.415Z,101529.02
2018-11-14T02:30:40.873Z,101524.67
2018-11-14T02:35:44.278Z,101526.46
2018-11-14T02:40:47.914Z,101532.89
2018-11-14T02:45:51.362Z,101535.67
2018-11-14T02:51:06.071Z,101528.98
2018-11-14T02:56:11.729Z,101522.81
2018-11-14T03:01:15.113Z,101517.52
2018-11-14T03:06:18.525Z,101516.70
2018-11-14T03:11:22.060Z,101522.17
2018-11-14T03:16:25.504Z,101525.42
2018-11-14T03:21:28.982Z,101530.81
2018-11-14T03:26:32.509Z,101526.38
2018-11-14T03:31:35.931Z,101529.61
2018-11-14T03:36:39.329Z,101535.95
2018-11-14T03:41:42.774Z,101536.16
2018-11-14T03:46:46.242Z,101539.73
2018-11-14T03:51:49.783Z,101531.08
2018-11-14T03:56:53.194Z,101537.29
2018-11-14T04:01:56.619Z,101529.66
2018-11-14T04:07:00.221Z,101531.61
2018-11-14T04:12:03.641Z,101516.80
2018-11-14T04:17:07.072Z,101514.58
2018-11-14T04:22:10.608Z,101511.94
2018-11-14T04:27:14.046Z,101518.67
2018-11-14T04:32:17.465Z,101514.19
2018-11-14T04:37:20.924Z,101509.33
2018-11-14T04:42:24.351Z,101504.42
2018-11-14T04:47:27.817Z,101513.84
2018-11-14T04:52:31.392Z,101520.10
2018-11-14T04:57:34.885Z,101517.02
2018-11-14T05:02:38.377Z,101519.31
2018-11-14T05:07:41.857Z,101515.20
2018-11-14T05:12:45.532Z,101511.63
2018-11-14T05:17:49.528Z,101515.36
2018-11-14T05:22:53.206Z,101522.54
2018-11-14T05:27:56.769Z,101526.92
2018-11-14T05:33:00.258Z,101539.69
2018-11-14T05:38:03.692Z,101531.56
2018-11-14T05:43:07.348Z,101519.30
2018-11-14T05:48:10.945Z,101518.19
2018-11-14T05:53:14.366Z,101513.14
2018-11-14T05:58:17.905Z,101520.66
2018-11-14T06:10:33.347Z,101525.82
2018-11-14T06:15:37.128Z,101531.52
2018-11-14T06:20:40.862Z,101535.03
2018-11-14T06:25:44.309Z,101535.33
2018-11-14T06:30:47.805Z,101542.46
2018-11-14T06:35:51.197Z,101533.12
2018-11-14T06:40:54.624Z,101541.54
2018-11-14T06:45:58.120Z,101544.14
2018-11-14T06:51:01.540Z,101542.72
2018-11-14T06:56:05.177Z,101542.23
2018-11-14T07:01:08.741Z,101549.36
2018-11-14T07:06:12.286Z,101551.14
2018-11-14T07:11:15.737Z,101551.14
2018-11-14T07:16:19.199Z,101560.56
2018-11-14T07:21:22.713Z,101568.09
2018-11-14T07:26:26.229Z,101575.69
2018-11-14T07:31:29.702Z,101559.92
2018-11-14T07:36:33.218Z,101574.91
2018-11-14T07:41:38.093Z,101577.60
2018-11-14T07:46:41.598Z,101570.47
2018-11-14T07:51:45.028Z,101567.78
2018-11-14T07:56:48.436Z,101571.43
2018-11-14T08:01:51.873Z,101565.46
2018-11-14T08:06:55.674Z,101587.53
2018-11-14T08:11:59.163Z,101588.84
2018-11-14T08:17:02.645Z,101590.33
2018-11-14T08:22:06.099Z,101592.48
2018-11-14T08:27:09.568Z,101586.82
2018-11-14T08:32:13.413Z,101586.13
2018-11-14T08:37:16.870Z,101591.98
2018-11-14T08:42:20.372Z,101589.59
2018-11-14T08:47:23.924Z,101587.85
2018-11-14T08:52:27.343Z,101597.62
2018-11-14T08:57:30.777Z,101607.14
2018-11-14T09:02:34.210Z,101613.70
2018-11-14T09:07:37.933Z,101606.69
2018-11-14T09:12:41.893Z,101606.56
2018-11-14T09:17:45.450Z,101606.41
2018-11-14T09:22:48.942Z,101613.86
2018-11-14T09:27:52.364Z,101625.97
2018-11-14T09:32:56.034Z,101630.02
2018-11-14T09:38:00.637Z,101618.89
2018-11-14T09:43:04.169Z,101623.94
2018-11-14T09:48:07.606Z,101619.47
2018-11-14T09:53:11.041Z,101621.09
2018-11-14T09:58:14.417Z,101623.94
2018-11-14T10:03:18.253Z,101617.05
2018-11-14T10:08:21.651Z,101602.40
2018-11-14T10:13:25.065Z,101599.15
2018-11-14T10:18:28.601Z,101592.72
2018-11-14T10:23:31.955Z,101589.59
2018-11-14T10:28:35.353Z,101584.86
2018-11-14T10:33:38.891Z,101579.21
2018-11-14T10:38:42.350Z,101575.48
2018-11-14T10:43:45.798Z,101568.19
2018-11-14T10:48:49.227Z,101573.00
2018-11-14T10:53:52.645Z,101570.92
2018-11-14T10:58:56.084Z,101576.22
2018-11-14T11:04:04.698Z,101578.95
2018-11-14T11:09:15.878Z,101572.91
2018-11-14T11:14:24.509Z,101586.08
2018-11-14T11:19:29.380Z,101586.00
2018-11-14T11:24:32.793Z,101574.56
2018-11-14T11:29:36.199Z,101575.91
2018-11-14T11:34:39.616Z,101566.66
2018-11-14T11:39:43.090Z,101562.49
2018-11-14T11:44:46.574Z,101553.55
2018-11-14T11:49:50.042Z,101554.14
2018-11-14T11:54:53.494Z,101553.97
2018-11-14T11:59:56.980Z,101539.45
2018-11-14T12:05:00.525Z,101539.16
2018-11-14T12:10:04.078Z,101531.38
2018-11-14T12:15:09.082Z,101534.80
2018-11-14T12:20:13.989Z,101532.33
2018-11-14T12:25:17.491Z,101538.90
2018-11-14T12:30:21.055Z,101546.20
2018-11-14T12:35:24.521Z,101548.66
2018-11-14T12:40:27.947Z,101543.91
2018-11-14T12:45:31.405Z,101540.69
2018-11-14T12:50:34.882Z,101539.00
2018-11-14T12:55:38.405Z,101530.92
2018-11-14T13:00:41.853Z,101532.61
2018-11-14T13:05:45.278Z,101516.52
2018-11-14T13:10:48.705Z,101502.64
2018-11-14T13:15:52.149Z,101494.17
2018-11-14T13:20:55.557Z,101494.17
2018-11-14T13:25:59.169Z,101493.61
2018-11-14T13:31:02.629Z,101481.95
2018-11-14T13:36:06.134Z,101485.36
2018-11-14T13:41:09.567Z,101487.19
2018-11-14T13:46:13.075Z,101485.11
2018-11-14T13:51:16.643Z,101480.38
2018-11-14T13:56:20.070Z,101475.13
2018-11-14T14:01:23.640Z,101476.47
2018-11-14T14:06:26.886Z,101474.90
2018-11-14T14:11:31.299Z,101477.20
2018-11-14T14:16:34.828Z,101479.42
2018-11-14T14:21:38.887Z,101483.07
2018-11-14T14:26:42.379Z,101482.42
2018-11-14T14:31:45.792Z,101485.82
2018-11-14T14:36:49.284Z,101491.13
2018-11-14T14:41:52.888Z,101492.95
2018-11-14T14:46:56.366Z,101500.08
2018-11-14T14:51:59.853Z,101501.99
2018-11-14T14:57:03.468Z,101513.64
2018-11-14T15:02:06.983Z,101509.99
2018-11-14T15:07:10.654Z,101509.20
2018-11-14T15:12:14.274Z,101505.64
2018-11-14T15:17:18.768Z,101505.64
2018-11-14T15:22:22.445Z,101505.38
2018-11-14T15:27:26.098Z,101501.43
2018-11-14T15:32:29.539Z,101503.48
2018-11-14T15:37:33.084Z,101503.00
2018-11-14T15:42:37.415Z,101508.34
2018-11-14T15:47:40.897Z,101504.83
2018-11-14T15:52:45.566Z,101506.56
2018-11-14T15:57:49.172Z,101507.91
2018-11-14T16:02:52.743Z,101500.31
2018-11-14T16:07:57.537Z,101499.92
2018-11-14T16:13:01.050Z,101505.64
2018-11-14T16:18:04.615Z,101513.55
2018-11-14T16:23:08.197Z,101503.56
2018-11-14T16:28:11.727Z,101493.99
2018-11-14T16:33:15.189Z,101487.64
2018-11-14T16:38:18.817Z,101481.72
2018-11-14T16:43:22.477Z,101477.98
2018-11-14T16:48:30.371Z,101494.62
2018-11-14T16:53:34.037Z,101500.91
2018-11-14T16:58:37.547Z,101493.05
2018-11-14T17:03:41.138Z,101492.73
2018-11-14T17:08:44.740Z,101498.60
2018-11-14T17:13:48.148Z,101493.61
2018-11-14T17:18:51.871Z,101493.52
2018-11-14T17:23:55.267Z,101490.90
2018-11-14T17:28:58.744Z,101479.70
2018-11-14T17:34:02.223Z,101484.35
2018-11-14T17:39:09.128Z,101467.22
2018-11-14T17:44:12.531Z,101468.86
2018-11-14T17:49:15.987Z,101479.83
2018-11-14T17:54:19.464Z,101473.68
2018-11-14T17:59:22.890Z,101473.14
2018-11-14T18:04:26.358Z,101468.38
2018-11-14T18:09:29.874Z,101462.59
2018-11-14T18:14:33.337Z,101466.97
2018-11-14T18:19:37.076Z,101473.38
2018-11-14T18:24:40.530Z,101483.38
2018-11-14T18:29:44.135Z,101490.20
2018-11-14T18:34:47.603Z,101489.40
2018-11-14T18:39:51.125Z,101504.37
2018-11-14T18:44:54.532Z,101511.20
2018-11-14T18:49:58.122Z,101509.91
2018-11-14T18:55:01.976Z,101514.28
2018-11-14T19:00:09.419Z,101513.66
2018-11-14T19:05:13.803Z,101499.30
2018-11-14T19:10:18.960Z,101501.28
2018-11-14T19:15:24.741Z,101493.85
2018-11-14T19:20:29.363Z,101503.52
2018-11-14T19:25:34.523Z,101504.79
2018-11-14T19:30:39.112Z,101504.79
2018-11-14T19:35:42.557Z,101502.00
2018-11-14T19:40:46.030Z,101502.79
2018-11-14T19:45:49.494Z,101492.49
2018-11-14T19:50:52.948Z,101503.36
2018-11-14T19:55:56.576Z,101504.22
2018-11-14T20:01:01.076Z,101507.97
2018-11-14T20:06:04.955Z,101507.54
2018-11-14T20:11:08.946Z,101508.84
2018-11-14T20:16:12.406Z,101513.89
2018-11-14T20:21:15.860Z,101514.28
2018-11-14T20:26:19.595Z,101505.72
2018-11-14T20:31:22.960Z,101498.98
2018-11-14T20:36:26.400Z,101502.33
2018-11-14T20:41:29.927Z,101484.42
2018-11-14T20:46:33.378Z,101488.52
2018-11-14T20:51:36.822Z,101507.78
2018-11-14T20:56:40.340Z,101507.01
2018-11-14T21:01:43.982Z,101497.96
2018-11-14T21:06:47.409Z,101485.36
2018-11-14T21:11:50.909Z,101492.09
2018-11-14T21:16:56.483Z,101485.45
2018-11-14T21:22:05.235Z,101492.57
2018-11-14T21:27:08.921Z,101490.84
2018-11-14T21:32:12.396Z,101496.70
2018-11-14T21:37:16.196Z,101493.14
2018-11-14T21:42:19.726Z,101502.97
2018-11-14T21:47:28.381Z,101496.62
2018-11-14T21:52:31.897Z,101503.36
2018-11-14T21:57:35.351Z,101493.53
2018-11-14T22:02:38.757Z,101483.23
2018-11-14T22:07:42.693Z,101492.18
2018-11-14T22:12:46.660Z,101478.70
2018-11-14T22:18:00.977Z,101476.88
2018-11-14T22:23:04.427Z,101468.40
2018-11-14T22:28:07.923Z,101461.66
2018-11-14T22:33:11.393Z,101458.97
2018-11-14T22:38:14.844Z,101457.14
2018-11-14T22:43:18.269Z,101465.28
2018-11-14T22:48:21.725Z,101470.23
2018-11-14T22:53:25.144Z,101464.84
2018-11-14T22:58:28.650Z,101461.72
2018-11-14T23:03:32.142Z,101460.37
2018-11-14T23:08:35.565Z,101461.55
2018-11-14T23:13:39.059Z,101457.30
2018-11-14T23:18:49.024Z,101454.20
2018-11-14T23:23:52.505Z,101452.38
2018-11-14T23:28:55.956Z,101452.44
2018-11-14T23:33:59.392Z,101459.59
2018-11-14T23:39:03.006Z,101457.34
2018-11-14T23:44:06.517Z,101451.03
2018-11-14T23:49:10.010Z,101450.16
2018-11-14T23:54:13.491Z,101450.55
2018-11-14T23:59:16.954Z,101443.87
